Have a Safe July 4th! 

Flight Track Log - Related Links

Times and Time Zones

All times are in EDT time to prevent confusion due to time zone crossing. See the EGF4247 flight status page for this flight to view local times or setup timezone preferences in your user account.

Time Position Orientation Groundspeed Altitude Reporting Facility
EDT Latitude Longitude Course Direction KTS MPH feet Rate Location/Type
Wed 03:48:36 PM 42.9500 -78.7167 270° West 159 183 1,300  Level Buffalo TRACON
Wed 03:49:00 PM 42.9667 -78.7000 36° Northeast 155 178 2,200 2,000 Climbing Buffalo TRACON
Wed 03:50:06 PM 43.0167 -78.6667 26° Northeast 219 252 4,300 2,143 Climbing Buffalo TRACON
Wed 03:51:00 PM 42.9500 -79.0603 270° West  Level FlightAware Approximate
Wed 03:51:06 PM 43.0333 -78.7500 285° West 236 272 6,700  Level Buffalo TRACON
Wed 03:52:00 PM 42.9591 -79.1750 277° West  Level FlightAware Approximate
Wed 03:52:06 PM 43.0333 -78.8500 270° West 274 315 8,200  Level Buffalo TRACON
Wed 03:53:00 PM 42.9667 -79.2899 270° West  Level FlightAware Approximate
Wed 03:53:01 PM 43.0333 -78.9333 270° West 260 299 10,600  Level Toronto Center
Wed 03:54:01 PM 43.0333 -79.0167 270° West 270 311 11,600 1,050 Climbing Toronto Center
Wed 03:55:01 PM 43.0333 -79.1333 270° West 300 345 12,700 1,050 Climbing Toronto Center
Wed 03:56:01 PM 43.0333 -79.2667 270° West 320 368 13,700 1,000 Climbing Toronto Center
Wed 03:57:01 PM 43.0333 -79.3833 270° West 330 380 14,700 1,000 Climbing Toronto Center
Wed 03:58:01 PM 43.0333 -79.5167 270° West 340 391 15,700 1,400 Climbing Toronto Center
Wed 03:59:01 PM 43.0333 -79.6333 270° West 330 380 17,500 1,600 Climbing Toronto Center
Wed 04:00:01 PM 43.0333 -79.7500 270° West 320 368 18,900 1,250 Climbing Toronto Center
Wed 04:01:01 PM 43.0333 -79.8833 270° West 320 368 20,000 1,000 Climbing Toronto Center
Wed 04:02:01 PM 43.0333 -80.0000 270° West 330 380 20,900 1,000 Climbing Toronto Center
Wed 04:03:01 PM 43.0333 -80.1333 270° West 340 391 22,000 1,000 Climbing Toronto Center
Wed 04:04:01 PM 43.0333 -80.2667 270° West 350 403 22,900 950 Climbing Toronto Center
Wed 04:05:01 PM 43.0333 -80.4167 270° West 360 414 23,900 1,000 Climbing Toronto Center
Wed 04:06:01 PM 43.0333 -80.5500 270° West 360 414 24,900 1,150 Climbing Toronto Center
Wed 04:07:01 PM 43.0167 -80.6833 260° West 350 403 26,200 1,400 Climbing Toronto Center
Wed 04:08:01 PM 43.0000 -80.8000 259° West 340 391 27,700 1,350 Climbing Toronto Center
Wed 04:09:01 PM 42.9833 -80.9333 260° West 330 380 28,900 1,200 Climbing Toronto Center
Wed 04:10:01 PM 42.9833 -81.0500 270° West 320 368 30,100 1,150 Climbing Toronto Center
Wed 04:11:01 PM 42.9833 -81.1667 270° West 320 368 31,200 950 Climbing Toronto Center
Wed 04:12:01 PM 42.9833 -81.3000 270° West 320 368 32,000 400 Climbing Toronto Center
Wed 04:13:01 PM 42.9833 -81.4333 270° West 340 391 32,000  Level Toronto Center
Wed 04:14:01 PM 42.9833 -81.5667 270° West 360 414 32,000  Level Toronto Center
Wed 04:15:01 PM 42.9833 -81.7000 270° West 380 437 32,000  Level Toronto Center
Wed 04:16:01 PM 42.9833 -81.8500 270° West 380 437 32,000  Level Toronto Center
Wed 04:17:01 PM 42.9667 -81.9833 260° West 380 437 32,000  Level Toronto Center
Wed 04:18:01 PM 42.9833 -82.1333 279° West 380 437 32,000  Level Toronto Center
Wed 04:19:01 PM 42.9833 -82.2833 270° West 380 437 32,000  Level Toronto Center
Wed 04:20:01 PM 42.9833 -82.4333 270° West 380 437 32,000  Level Toronto Center
Wed 04:21:01 PM 42.9833 -82.5667 270° West 380 437 32,000  Level Toronto Center
Wed 04:22:01 PM 42.9667 -82.7167 261° West 380 437 32,000  Level Toronto Center
Wed 04:22:21 PM 42.9858 -82.7572 303° West 384 442 32,000  Level Cleveland Center
Wed 04:23:21 PM 42.9828 -82.9047 268° West 384 442 32,000  Level Cleveland Center
Wed 04:24:21 PM 42.9778 -83.0464 267° West 384 442 32,000  Level Cleveland Center
Wed 04:25:21 PM 42.9767 -83.1911 269° West 384 442 32,000  Level Cleveland Center
Wed 04:26:21 PM 42.9753 -83.3386 269° West 384 442 32,000  Level Cleveland Center
Wed 04:27:21 PM 42.9717 -83.4861 268° West 389 448 32,000  Level Cleveland Center
Wed 04:28:21 PM 42.9681 -83.6278 268° West 384 442 32,000  Level Cleveland Center
Wed 04:29:21 PM 42.9642 -83.7722 268° West 384 442 32,000  Level Cleveland Center
Wed 04:30:21 PM 42.9497 -83.9164 262° West 384 442 32,000  Level Cleveland Center
Wed 04:31:21 PM 42.9353 -84.0572 262° West 384 442 32,000  Level Cleveland Center
Wed 04:32:21 PM 42.9203 -84.2011 262° West 384 442 32,000  Level Cleveland Center
Wed 04:33:21 PM 42.9053 -84.3419 262° West 384 442 32,000  Level Cleveland Center
Wed 04:34:29 PM 42.8906 -84.5158 263° West 383 441 32,000  Level Chicago Center
Wed 04:35:31 PM 42.8761 -84.6583 262° West 382 440 32,000  Level Chicago Center
Wed 04:36:33 PM 42.8617 -84.8033 262° West 386 444 32,000  Level Chicago Center
Wed 04:37:35 PM 42.8469 -84.9464 262° West 384 442 32,000  Level Chicago Center
Wed 04:38:37 PM 42.8311 -85.0897 261° West 383 441 32,000 -726 Level Chicago Center
Wed 04:39:39 PM 42.8125 -85.2608 262° West 382 440 30,500 -1,355 Descending Chicago Center
Wed 04:40:41 PM 42.7964 -85.4083 262° West 392 451 29,200 -726 Descending Chicago Center
Wed 04:41:43 PM 42.7769 -85.5569 260° West 397 457 29,000 -97 Descending Chicago Center
Wed 04:42:45 PM 42.7497 -85.7031 256° West 397 457 29,000  Level Chicago Center
Wed 04:43:47 PM 42.7231 -85.8511 256° West 399 459 29,000 -484 Level Chicago Center
Wed 04:44:49 PM 42.6964 -85.9983 256° West 399 459 28,000 -1,008 Descending Chicago Center
Wed 04:45:52 PM 42.6689 -86.1489 256° West 406 467 26,900 -1,728 Descending Chicago Center
Wed 04:46:54 PM 42.6422 -86.2933 256° West 397 457 24,400 -2,806 Descending Chicago Center
Wed 04:47:56 PM 42.6092 -86.4619 255° West 386 444 21,100 -2,952 Descending Chicago Center
Wed 04:48:58 PM 42.5842 -86.5997 256° West 379 436 18,300 -2,565 Descending Chicago Center
Wed 04:50:00 PM 42.5583 -86.7358 256° West 374 430 15,800 -2,371 Descending Chicago Center
Wed 04:51:02 PM 42.5253 -86.8628 251° West 362 417 13,400 -2,371 Descending Chicago Center
Wed 04:52:04 PM 42.4903 -86.9817 248° West 346 398 10,900 -1,645 Descending Chicago Center
Wed 04:53:06 PM 42.4556 -87.1028 249° West 344 396 10,000 -435 Descending Chicago Center
Wed 04:54:08 PM 42.4175 -87.2478 250° West 343 395 10,000  Level Chicago Center
Wed 04:55:10 PM 42.3842 -87.3650 249° West 336 387 10,000  Level Chicago Center
Wed 04:56:12 PM 42.3539 -87.4789 250° West 329 379 10,000  Level Chicago Center
Wed 04:57:14 PM 42.3022 -87.5781 235° Southwest 331 381 10,000  Level Chicago Center
Wed 04:58:17 PM 42.2158 -87.6689 218° Southwest 328 377 10,000  Level Chicago Center
Wed 04:59:19 PM 42.1475 -87.7386 217° Southwest 309 356 10,000 -484 Level Chicago Center
Wed 05:00:21 PM 42.0786 -87.7686 198° South 270 311 9,000 -919 Descending Chicago Center
Wed 05:01:23 PM 42.0072 -87.7928 194° South 264 304 8,100 -484 Descending Chicago Center
Wed 05:02:25 PM 41.9375 -87.8261 200° South 267 307 8,000 -1,161 Descending Chicago Center
Wed 05:03:27 PM 41.8694 -87.8931 216° Southwest 254 292 5,700 -1,645 Descending Chicago Center
Wed 05:04:29 PM 41.8197 -87.9511 221° Southwest 249 287 4,600 -1,065 Descending Chicago Center

Login

Don't have an account? Register now (free) for customized features, flight alerts, and more!